This is the latest recevied weather packets stored in our database for station/object WA9AFM. If no packets are shown the sender has not sent any weather packets the latest 10 day(s).
| Time | Temp. | Humidity | Pressure | Rain* | Wind** | Luminosity | Snow |
|---|---|---|---|---|---|---|---|
| 1787811504 | 27.78° C | 65% | 1009.8 hPa | 0 mm | - | - | - |
| 1787810606 | 27.78° C | 66% | 1009.8 hPa | 0 mm | - | - | - |
| 1787809705 | 27.78° C | 64% | 1009.6 hPa | 0 mm | - | - | - |
| 1787808804 | 28.33° C | 64% | 1009.6 hPa | 0 mm | - | - | - |
| 1787807905 | 28.33° C | 65% | 1009.5 hPa | 0 mm | - | - | - |
| 1787807004 | 27.78° C | 67% | 1009.6 hPa | 0 mm | - | - | - |
| 1787806104 | 27.22° C | 68% | 1009.7 hPa | 0 mm | - | - | - |
| 1787805205 | 27.22° C | 69% | 1009.5 hPa | 0 mm | - | - | - |
| 1787804304 | 27.22° C | 69% | 1009.4 hPa | 0 mm | - | - | - |
| 1787803406 | 26.67° C | 72% | 1009.4 hPa | 0 mm | - | - | - |
| 1787802505 | 26.67° C | 73% | 1009.3 hPa | 0 mm | - | - | - |
| 1787801604 | 26.67° C | 72% | 1009.1 hPa | 0 mm | - | - | - |
| 1787800705 | 27.22° C | 72% | 1009.1 hPa | 0 mm | - | - | - |
| 1787799805 | 27.22° C | 71% | 1009 hPa | 0 mm | - | - | - |
| 1787798904 | 27.78° C | 69% | 1008.9 hPa | 0 mm | - | - | - |
| 1787798005 | 28.33° C | 67% | 1008.9 hPa | 0 mm | - | - | - |
| 1787797104 | 28.33° C | 67% | 1008.9 hPa | 0 mm | - | - | - |
| 1787796206 | 28.89° C | 65% | 1008.7 hPa | 0 mm | - | - | - |
| 1787795305 | 29.44° C | 63% | 1008.4 hPa | 0 mm | - | - | - |
| 1787794404 | 30.56° C | 61% | 1008.2 hPa | 0 mm | - | - | - |
| 1787793505 | 31.11° C | 58% | 1008 hPa | 0 mm | - | - | - |
| 1787792605 | 31.67° C | 56% | 1007.8 hPa | 0 mm | - | - | - |
| 1787791704 | 32.78° C | 54% | 1007.6 hPa | 0 mm | - | - | - |
| 1787790805 | 33.33° C | 53% | 1007.4 hPa | 0 mm | - | - | - |
| 1787789904 | 33.33° C | 52% | 1007.2 hPa | 0 mm | - | - | - |
* Rain latest hour (hover to see other rain measurements)
** Current wind speed in m/s (hover to see current wind gust speed)